EZY64XR LEMH-EGKK
Flight info
| Callsign | EZY64XR |
|---|---|
| Flight time | N/A |
| Altitude | 38000 |
| Route | MEROS N853 LUMAS DCT SOFFY DCT MRM DCT MTL DCT ETREK DCT MADOT DCT MOPEM DCT CACHI DCT AVLON DCT OKRIX DCT BRY DCT CLM DCT KOPOR DCT KESAX DCT KUNAV |
| Aircraft | A319/M-SDE2E3FGIJ1RWXYZ/LB1 |
Departure
| Time | 2026-04-28 14:44 |
|---|---|
| Airport | Menorca Airport (LEMH) |
Arrival
| Time | N/A |
|---|---|
| Airport | London Gatwick Airport (EGKK) |
| Time | Latitude | Longitude | Altitude | Speed | Heading |
|---|---|---|---|---|---|
| 2026-04-28 14:08 | 39.86425 | 4.22391 | 286 ft | 0 kts | 99° |
| 2026-04-28 14:36 | 39.86428 | 4.22369 | 287 ft | 4 kts | 105° |
| 2026-04-28 14:36 | 39.86438 | 4.22336 | 291 ft | 4 kts | 124° |
| 2026-04-28 14:36 | 39.86455 | 4.22316 | 288 ft | 4 kts | 176° |
| 2026-04-28 14:36 | 39.86466 | 4.22316 | 288 ft | 1 kts | 189° |
| 2026-04-28 14:37 | 39.86466 | 4.22317 | 288 ft | 0 kts | 189° |
| 2026-04-28 14:38 | 39.86464 | 4.22316 | 288 ft | 2 kts | 189° |
| 2026-04-28 14:38 | 39.86431 | 4.22309 | 288 ft | 7 kts | 189° |
| 2026-04-28 14:39 | 39.86373 | 4.22298 | 288 ft | 10 kts | 189° |
| 2026-04-28 14:39 | 39.86298 | 4.22282 | 288 ft | 12 kts | 189° |
| 2026-04-28 14:39 | 39.86212 | 4.22263 | 288 ft | 10 kts | 193° |
| 2026-04-28 14:39 | 39.86186 | 4.22189 | 290 ft | 10 kts | 278° |
| 2026-04-28 14:40 | 39.86187 | 4.22108 | 293 ft | 10 kts | 245° |
| 2026-04-28 14:40 | 39.86166 | 4.22085 | 296 ft | 13 kts | 206° |
| 2026-04-28 14:40 | 39.86031 | 4.22057 | 299 ft | 16 kts | 188° |
| 2026-04-28 14:40 | 39.85920 | 4.22034 | 296 ft | 17 kts | 189° |
| 2026-04-28 14:41 | 39.85793 | 4.22007 | 293 ft | 20 kts | 189° |
| 2026-04-28 14:41 | 39.85639 | 4.21976 | 291 ft | 24 kts | 188° |
| 2026-04-28 14:41 | 39.85460 | 4.21939 | 284 ft | 28 kts | 189° |
| 2026-04-28 14:41 | 39.85263 | 4.21898 | 284 ft | 28 kts | 188° |
| 2026-04-28 14:42 | 39.85136 | 4.21873 | 281 ft | 14 kts | 188° |
| 2026-04-28 14:42 | 39.85067 | 4.21795 | 280 ft | 14 kts | 272° |
| 2026-04-28 14:42 | 39.85114 | 4.21706 | 284 ft | 11 kts | 311° |
| 2026-04-28 14:42 | 39.85167 | 4.21647 | 286 ft | 10 kts | 345° |
| 2026-04-28 14:43 | 39.85223 | 4.21651 | 286 ft | 8 kts | 8° |
| 2026-04-28 14:43 | 39.85355 | 4.21679 | 286 ft | 49 kts | 9° |
| 2026-04-28 14:43 | 39.85943 | 4.21800 | 302 ft | 119 kts | 9° |
| 2026-04-28 14:43 | 39.86942 | 4.22007 | 401 ft | 162 kts | 13° |
| 2026-04-28 14:44 | 39.88052 | 4.22248 | 1034 ft | 163 kts | 14° |
| 2026-04-28 14:44 | 39.89203 | 4.22507 | 1558 ft | 177 kts | 14° |
| 2026-04-28 14:44 | 39.90494 | 4.22797 | 2027 ft | 200 kts | 12° |
| 2026-04-28 14:44 | 39.91955 | 4.23113 | 2506 ft | 225 kts | 12° |
| 2026-04-28 14:45 | 39.93582 | 4.23457 | 2978 ft | 249 kts | 12° |
| 2026-04-28 14:45 | 39.95357 | 4.23828 | 3603 ft | 265 kts | 11° |
| 2026-04-28 14:45 | 39.97202 | 4.24208 | 4513 ft | 271 kts | 11° |
| 2026-04-28 14:45 | 39.99089 | 4.24597 | 5457 ft | 277 kts | 11° |
| 2026-04-28 14:46 | 40.01009 | 4.24996 | 6388 ft | 282 kts | 10° |
| 2026-04-28 14:46 | 40.02960 | 4.25421 | 7256 ft | 286 kts | 10° |
| 2026-04-28 14:46 | 40.04936 | 4.25880 | 8121 ft | 291 kts | 10° |
| 2026-04-28 14:46 | 40.06946 | 4.26357 | 8987 ft | 296 kts | 10° |
| 2026-04-28 14:47 | 40.08975 | 4.26845 | 9898 ft | 298 kts | 9° |
| 2026-04-28 14:47 | 40.11030 | 4.27338 | 10704 ft | 303 kts | 9° |
| 2026-04-28 14:47 | 40.13175 | 4.27852 | 11050 ft | 325 kts | 9° |
| 2026-04-28 14:47 | 40.15447 | 4.28396 | 11585 ft | 337 kts | 9° |
| 2026-04-28 14:48 | 40.17774 | 4.28950 | 12334 ft | 342 kts | 8° |
| 2026-04-28 14:48 | 40.20129 | 4.29511 | 13096 ft | 347 kts | 8° |
| 2026-04-28 14:48 | 40.22519 | 4.30083 | 13845 ft | 351 kts | 8° |
| 2026-04-28 14:48 | 40.24937 | 4.30663 | 14505 ft | 356 kts | 8° |
| 2026-04-28 14:49 | 40.27384 | 4.31246 | 15164 ft | 359 kts | 8° |
| 2026-04-28 14:49 | 40.29827 | 4.31825 | 15808 ft | 363 kts | 8° |
| 2026-04-28 14:49 | 40.32328 | 4.32416 | 16457 ft | 367 kts | 8° |
| 2026-04-28 14:49 | 40.34859 | 4.33019 | 17097 ft | 372 kts | 8° |
| 2026-04-28 14:50 | 40.37391 | 4.33625 | 17728 ft | 376 kts | 8° |
| 2026-04-28 14:50 | 40.39979 | 4.34244 | 18368 ft | 380 kts | 8° |
| 2026-04-28 14:50 | 40.42598 | 4.34871 | 18896 ft | 385 kts | 8° |
| 2026-04-28 14:50 | 40.45240 | 4.35505 | 19466 ft | 388 kts | 8° |
| 2026-04-28 14:51 | 40.47908 | 4.36145 | 20053 ft | 391 kts | 8° |
| 2026-04-28 14:51 | 40.50590 | 4.36788 | 20639 ft | 394 kts | 8° |
| 2026-04-28 14:51 | 40.53294 | 4.37431 | 21218 ft | 397 kts | 8° |
| 2026-04-28 14:51 | 40.56020 | 4.38076 | 21795 ft | 399 kts | 8° |
| 2026-04-28 14:52 | 40.58764 | 4.38725 | 22371 ft | 402 kts | 8° |
| 2026-04-28 14:52 | 40.61530 | 4.39382 | 22936 ft | 405 kts | 8° |
| 2026-04-28 14:52 | 40.64315 | 4.40049 | 23502 ft | 408 kts | 8° |
| 2026-04-28 14:52 | 40.67116 | 4.40723 | 23983 ft | 411 kts | 9° |
| 2026-04-28 14:53 | 40.69941 | 4.41404 | 24443 ft | 414 kts | 9° |
| 2026-04-28 14:53 | 40.72777 | 4.42088 | 24895 ft | 416 kts | 9° |
| 2026-04-28 14:53 | 40.75634 | 4.42779 | 25345 ft | 418 kts | 9° |
| 2026-04-28 14:53 | 40.78505 | 4.43474 | 25779 ft | 421 kts | 9° |
| 2026-04-28 14:54 | 40.81392 | 4.44171 | 26207 ft | 423 kts | 9° |
| 2026-04-28 14:54 | 40.84298 | 4.44874 | 26651 ft | 425 kts | 9° |
| 2026-04-28 14:54 | 40.87215 | 4.45580 | 27074 ft | 428 kts | 8° |
| 2026-04-28 14:54 | 40.90147 | 4.46286 | 27490 ft | 430 kts | 8° |
| 2026-04-28 14:55 | 40.93101 | 4.46995 | 27905 ft | 432 kts | 8° |
| 2026-04-28 14:55 | 40.96069 | 4.47711 | 28308 ft | 435 kts | 8° |
| 2026-04-28 14:55 | 40.99053 | 4.48433 | 28715 ft | 437 kts | 9° |
| 2026-04-28 14:55 | 41.02051 | 4.49162 | 29116 ft | 440 kts | 9° |
| 2026-04-28 14:56 | 41.05068 | 4.49898 | 29519 ft | 442 kts | 9° |
| 2026-04-28 14:56 | 41.08098 | 4.50638 | 29910 ft | 444 kts | 9° |
| 2026-04-28 14:56 | 41.11147 | 4.51383 | 30263 ft | 447 kts | 9° |
| 2026-04-28 14:56 | 41.14211 | 4.52131 | 30587 ft | 449 kts | 9° |
| 2026-04-28 14:57 | 41.17244 | 4.52873 | 30894 ft | 451 kts | 9° |
| 2026-04-28 14:57 | 41.19330 | 4.53383 | 31115 ft | 452 kts | 9° |
| 2026-04-28 14:57 | 41.23487 | 4.54399 | 31511 ft | 455 kts | 9° |
| 2026-04-28 14:57 | 41.26601 | 4.55159 | 31862 ft | 456 kts | 9° |
| 2026-04-28 14:58 | 41.29676 | 4.55910 | 32287 ft | 455 kts | 9° |
| 2026-04-28 14:58 | 41.32784 | 4.56669 | 32711 ft | 454 kts | 9° |
| 2026-04-28 14:58 | 41.35888 | 4.57424 | 33131 ft | 453 kts | 9° |
| 2026-04-28 14:58 | 41.38982 | 4.58177 | 33570 ft | 452 kts | 9° |
| 2026-04-28 14:59 | 41.42072 | 4.58934 | 34011 ft | 451 kts | 9° |
| 2026-04-28 14:59 | 41.45151 | 4.59690 | 34392 ft | 450 kts | 9° |
| 2026-04-28 14:59 | 41.48226 | 4.60444 | 34733 ft | 449 kts | 9° |
| 2026-04-28 14:59 | 41.51306 | 4.61201 | 35040 ft | 449 kts | 9° |
| 2026-04-28 15:00 | 41.54373 | 4.61963 | 35323 ft | 449 kts | 8° |
| 2026-04-28 15:00 | 41.57449 | 4.62728 | 35645 ft | 449 kts | 8° |
| 2026-04-28 15:00 | 41.60523 | 4.63490 | 35940 ft | 449 kts | 8° |
| 2026-04-28 15:00 | 41.63601 | 4.64250 | 36231 ft | 449 kts | 8° |
| 2026-04-28 15:01 | 41.66674 | 4.65007 | 36512 ft | 449 kts | 8° |
| 2026-04-28 15:01 | 41.69747 | 4.65768 | 36798 ft | 449 kts | 8° |
| 2026-04-28 15:01 | 41.72816 | 4.66535 | 37069 ft | 449 kts | 9° |
| 2026-04-28 15:01 | 41.75837 | 4.67621 | 37336 ft | 450 kts | 14° |
| 2026-04-28 15:02 | 41.78840 | 4.68795 | 37591 ft | 450 kts | 14° |
| 2026-04-28 15:02 | 41.81845 | 4.69976 | 37844 ft | 450 kts | 14° |
| 2026-04-28 15:02 | 41.84849 | 4.71162 | 38019 ft | 451 kts | 14° |
| 2026-04-28 15:03 | 41.90848 | 4.73526 | 38054 ft | 450 kts | 13° |
| 2026-04-28 15:03 | 41.96858 | 4.75887 | 38052 ft | 450 kts | 13° |
| 2026-04-28 15:04 | 42.02868 | 4.78256 | 38051 ft | 450 kts | 13° |
| 2026-04-28 15:04 | 42.08868 | 4.80620 | 38052 ft | 450 kts | 13° |
| 2026-04-28 15:05 | 42.14865 | 4.82996 | 38063 ft | 450 kts | 13° |
| 2026-04-28 15:05 | 42.20875 | 4.85385 | 38063 ft | 450 kts | 13° |
| 2026-04-28 15:06 | 42.26884 | 4.87767 | 38063 ft | 450 kts | 13° |
| 2026-04-28 15:06 | 42.32853 | 4.90141 | 38073 ft | 450 kts | 13° |
| 2026-04-28 15:07 | 42.38865 | 4.92547 | 38072 ft | 451 kts | 13° |
| 2026-04-28 15:07 | 42.44877 | 4.94960 | 38071 ft | 451 kts | 13° |
| 2026-04-28 15:08 | 42.50885 | 4.97367 | 38080 ft | 450 kts | 13° |
| 2026-04-28 15:08 | 42.56894 | 4.99770 | 38075 ft | 450 kts | 13° |
| 2026-04-28 15:09 | 42.62897 | 5.02187 | 38072 ft | 450 kts | 13° |
| 2026-04-28 15:09 | 42.68895 | 5.04598 | 38069 ft | 449 kts | 13° |
| 2026-04-28 15:10 | 42.74890 | 5.07009 | 38063 ft | 449 kts | 13° |
| 2026-04-28 15:10 | 42.80883 | 5.09426 | 38060 ft | 449 kts | 13° |
| 2026-04-28 15:11 | 42.86871 | 5.11855 | 38059 ft | 449 kts | 13° |
| 2026-04-28 15:11 | 42.92861 | 5.14287 | 38065 ft | 449 kts | 13° |
| 2026-04-28 15:12 | 42.98849 | 5.16727 | 38061 ft | 449 kts | 13° |
| 2026-04-28 15:12 | 43.04839 | 5.19182 | 38059 ft | 450 kts | 13° |
| 2026-04-28 15:13 | 43.10835 | 5.21636 | 38054 ft | 450 kts | 13° |
| 2026-04-28 15:13 | 43.16834 | 5.24079 | 38053 ft | 450 kts | 13° |
| 2026-04-28 15:14 | 43.22839 | 5.26523 | 38048 ft | 450 kts | 13° |
| 2026-04-28 15:14 | 43.28844 | 5.28985 | 38032 ft | 450 kts | 13° |
| 2026-04-28 15:15 | 43.34830 | 5.31107 | 38039 ft | 445 kts | 2° |
| 2026-04-28 15:15 | 43.40917 | 5.30921 | 38032 ft | 433 kts | 344° |
| 2026-04-28 15:16 | 43.46638 | 5.28586 | 38025 ft | 428 kts | 336° |
| 2026-04-28 15:16 | 43.52296 | 5.25989 | 38039 ft | 429 kts | 336° |
| 2026-04-28 15:17 | 43.57821 | 5.23472 | 38036 ft | 429 kts | 337° |
| 2026-04-28 15:17 | 43.63488 | 5.20884 | 38033 ft | 429 kts | 336° |
| 2026-04-28 15:18 | 43.69149 | 5.18281 | 38037 ft | 429 kts | 336° |
| 2026-04-28 15:18 | 43.74809 | 5.15670 | 38052 ft | 429 kts | 336° |
| 2026-04-28 15:19 | 43.80472 | 5.13069 | 38032 ft | 429 kts | 336° |
| 2026-04-28 15:19 | 43.86131 | 5.10452 | 38025 ft | 429 kts | 336° |
| 2026-04-28 15:20 | 43.91688 | 5.07873 | 38031 ft | 428 kts | 336° |
| 2026-04-28 15:20 | 43.97336 | 5.05244 | 38026 ft | 428 kts | 336° |
| 2026-04-28 15:21 | 44.02990 | 5.02625 | 38023 ft | 428 kts | 336° |
| 2026-04-28 15:21 | 44.08636 | 5.00010 | 38014 ft | 428 kts | 336° |
| 2026-04-28 15:22 | 44.14239 | 4.97402 | 38026 ft | 427 kts | 336° |
| 2026-04-28 15:22 | 44.19879 | 4.94768 | 38027 ft | 427 kts | 336° |
| 2026-04-28 15:23 | 44.25519 | 4.92118 | 38020 ft | 428 kts | 336° |
| 2026-04-28 15:23 | 44.31162 | 4.89461 | 38036 ft | 428 kts | 336° |
| 2026-04-28 15:24 | 44.36814 | 4.86801 | 38037 ft | 429 kts | 336° |
| 2026-04-28 15:24 | 44.42468 | 4.84136 | 38036 ft | 429 kts | 336° |
| 2026-04-28 15:25 | 44.48120 | 4.81466 | 38033 ft | 429 kts | 336° |
| 2026-04-28 15:25 | 44.53768 | 4.78793 | 38051 ft | 428 kts | 336° |
| 2026-04-28 15:26 | 44.59648 | 4.77062 | 38045 ft | 434 kts | 346° |
| 2026-04-28 15:26 | 44.65613 | 4.75757 | 38037 ft | 434 kts | 346° |
| 2026-04-28 15:27 | 44.71569 | 4.74427 | 38029 ft | 434 kts | 346° |
| 2026-04-28 15:27 | 44.77531 | 4.73096 | 38026 ft | 434 kts | 346° |
| 2026-04-28 15:28 | 44.83494 | 4.71768 | 38026 ft | 434 kts | 346° |
| 2026-04-28 15:28 | 44.89451 | 4.70442 | 38025 ft | 434 kts | 346° |
| 2026-04-28 15:29 | 44.95407 | 4.69110 | 38036 ft | 432 kts | 346° |
| 2026-04-28 15:29 | 45.00317 | 4.68012 | 38047 ft | 432 kts | 346° |
| 2026-04-28 15:30 | 45.06256 | 4.66684 | 38046 ft | 432 kts | 345° |
| 2026-04-28 15:30 | 45.12193 | 4.65346 | 38056 ft | 432 kts | 345° |
| 2026-04-28 15:31 | 45.18107 | 4.64013 | 38041 ft | 431 kts | 345° |
| 2026-04-28 15:31 | 45.24030 | 4.62667 | 38057 ft | 431 kts | 345° |
| 2026-04-28 15:32 | 45.29943 | 4.61308 | 38065 ft | 431 kts | 345° |
| 2026-04-28 15:32 | 45.35871 | 4.59954 | 38052 ft | 432 kts | 345° |
| 2026-04-28 15:33 | 45.41810 | 4.58593 | 38055 ft | 432 kts | 345° |
| 2026-04-28 15:33 | 45.47747 | 4.57228 | 38057 ft | 432 kts | 345° |
| 2026-04-28 15:34 | 45.53688 | 4.55859 | 38065 ft | 432 kts | 345° |
| 2026-04-28 15:34 | 45.59628 | 4.54484 | 38061 ft | 432 kts | 345° |
| 2026-04-28 15:35 | 45.65567 | 4.53108 | 38058 ft | 432 kts | 345° |
| 2026-04-28 15:35 | 45.74418 | 4.51057 | 38048 ft | 432 kts | 345° |
| 2026-04-28 15:36 | 45.80355 | 4.49677 | 38045 ft | 432 kts | 345° |
| 2026-04-28 15:36 | 45.86291 | 4.48293 | 38041 ft | 432 kts | 345° |
| 2026-04-28 15:37 | 45.92229 | 4.46911 | 38051 ft | 432 kts | 346° |
| 2026-04-28 15:37 | 45.98168 | 4.45529 | 38039 ft | 433 kts | 346° |
| 2026-04-28 15:38 | 46.04108 | 4.44134 | 38028 ft | 433 kts | 346° |
| 2026-04-28 15:38 | 46.10053 | 4.42722 | 38035 ft | 433 kts | 346° |
| 2026-04-28 15:39 | 46.16003 | 4.41317 | 38022 ft | 433 kts | 346° |
| 2026-04-28 15:39 | 46.21958 | 4.39918 | 38016 ft | 434 kts | 346° |
| 2026-04-28 15:40 | 46.27834 | 4.38527 | 38009 ft | 434 kts | 345° |
| 2026-04-28 15:40 | 46.33736 | 4.36758 | 38011 ft | 433 kts | 341° |
| 2026-04-28 15:41 | 46.39571 | 4.34599 | 38001 ft | 433 kts | 340° |
| 2026-04-28 15:41 | 46.45414 | 4.32423 | 37993 ft | 434 kts | 341° |
| 2026-04-28 15:42 | 46.51290 | 4.30339 | 37998 ft | 435 kts | 341° |
| 2026-04-28 15:42 | 46.57179 | 4.28290 | 37996 ft | 435 kts | 341° |
| 2026-04-28 15:43 | 46.63030 | 4.26243 | 37996 ft | 435 kts | 341° |
| 2026-04-28 15:43 | 46.68915 | 4.24155 | 37998 ft | 435 kts | 341° |
| 2026-04-28 15:44 | 46.74803 | 4.22068 | 38001 ft | 435 kts | 341° |
| 2026-04-28 15:44 | 46.80689 | 4.19971 | 38000 ft | 435 kts | 341° |
| 2026-04-28 15:45 | 46.86575 | 4.17876 | 37998 ft | 435 kts | 341° |
| 2026-04-28 15:45 | 46.92458 | 4.15759 | 38022 ft | 435 kts | 341° |
| 2026-04-28 15:46 | 46.98342 | 4.13635 | 38016 ft | 436 kts | 341° |
| 2026-04-28 15:46 | 47.04227 | 4.11522 | 38015 ft | 435 kts | 341° |
| 2026-04-28 15:47 | 47.09925 | 4.08748 | 38004 ft | 430 kts | 333° |
| 2026-04-28 15:47 | 47.15486 | 4.05469 | 38008 ft | 431 kts | 333° |
| 2026-04-28 15:48 | 47.21045 | 4.02177 | 38001 ft | 431 kts | 333° |
| 2026-04-28 15:48 | 47.26611 | 3.98870 | 38000 ft | 431 kts | 333° |
| 2026-04-28 15:49 | 47.32180 | 3.95560 | 38014 ft | 432 kts | 333° |
| 2026-04-28 15:49 | 47.37757 | 3.92243 | 38007 ft | 432 kts | 333° |
| 2026-04-28 15:50 | 47.43336 | 3.88916 | 38004 ft | 433 kts | 333° |